Nearby METAR Reports

 

KBGR - Bangor, Maine, USA
Distance from station: E 5mi, 8km
Updated: Fri, 03-Apr-2020 3:53pm EDT
Overcast
Overcast
 Wind from NE
Wind: NE 17 mph , 28 km/h, Gust: 28 mph , 44 km/h
Temperature: 48°F , 9°C
Wind Chill: 42°F , 6°C
Dew Point: 37°F , 3°C
Humidity: 66%
Barometer: 29.86 inHg , 1011.2 hPa
Clouds: Overcast
Visibility: 10 miles , 16 km
Cloud details: Mostly cloudy 3300 ft
Overcast 5500 ft
2020/04/03 19:53 KBGR 031953Z 04015G24KT 10SM BKN033 OVC055 09/03 A2986 RMK AO2 PK WND 04033/1910 SLP112 T00940033
KBHB - Bar Harbor, Maine, USA
Distance from station: SE 37mi, 59km
Updated: Fri, 03-Apr-2020 3:56pm EDT
Light rain, Overcast
Light rain, Overcast
 Wind from NNE
Wind: NNE 24 mph , 39 km/h, Gust: 33 mph , 54 km/h
Temperature: 46°F , 8°C
Wind Chill: 38°F , 3°C
Dew Point: 41°F , 5°C
Humidity: 82%
Barometer: 29.80 inHg , 1009.1 hPa
Summary: Light rain
Clouds: Overcast
Visibility: 10 miles , 16 km
Cloud details: Few Clouds 1900 ft
Mostly cloudy 2500 ft
Overcast 4700 ft
2020/04/03 19:56 KBHB 031956Z AUTO 03021G29KT 10SM -RA FEW019 BKN025 OVC047 08/05 A2980 RMK AO2 PK WND 03033/1911 SLP095 P0000 T00780050
 
KWVL - Waterville, Maine, USA
Distance from station: WSW 42mi, 68km
Updated: Fri, 03-Apr-2020 3:56pm EDT
Light rain, Overcast
Light rain, Overcast
 Wind from NNE
Wind: NNE 21 mph , 33 km/h, Gust: 29 mph , 46 km/h
Temperature: 46°F , 8°C
Wind Chill: 38°F , 3°C
Dew Point: 41°F , 5°C
Humidity: 82%
Barometer: 29.81 inHg , 1009.5 hPa
Summary: Light rain
Clouds: Overcast
Visibility: 10 miles , 16 km
Cloud details: Mostly cloudy 2700 ft
Overcast 3200 ft
2020/04/03 19:56 KWVL 031956Z AUTO 03018G25KT 10SM -RA BKN027 OVC032 08/05 A2981 RMK AO2 PK WND 03029/1929 SLP123 P0000 T00830050
KRKD - Rockland/Knox, Maine, USA
Distance from station: S 52mi, 84km
Updated: Fri, 03-Apr-2020 3:56pm EDT
Light rain, Overcast
Light rain, Overcast
 Wind from NNE
Wind: NNE 21 mph , 33 km/h, Gust: 31 mph , 50 km/h
Temperature: 46°F , 8°C
Wind Chill: 38°F , 3°C
Dew Point: 41°F , 5°C
Humidity: 82%
Barometer: 29.77 inHg , 1008.1 hPa
Summary: Light rain
Clouds: Overcast
Visibility: 10 miles , 16 km
Cloud details: Overcast 2000 ft
2020/04/03 19:56 KRKD 031956Z AUTO 03018G27KT 10SM -RA OVC020 08/05 A2977 RMK AO2 PK WND 03027/1955 RAB05 SLP081 P0000 T00780050
 
KAUG - Augusta, Maine, USA
Distance from station: SW 55mi, 89km
Updated: Fri, 03-Apr-2020 3:53pm EDT
Light rain, Mist, Overcast
Light rain, Mist, Overcast
 Wind from NNE
Wind: NNE 20 mph , 31 km/h, Gust: 33 mph , 54 km/h
Temperature: 46°F , 8°C
Wind Chill: 38°F , 3°C
Dew Point: 43°F , 6°C
Humidity: 87%
Barometer: 29.82 inHg , 1009.8 hPa
Summary: Light rain, Mist
Clouds: Overcast
Visibility: 3 miles , 5 km
Cloud details: Partly cloudy 1300 ft
Mostly cloudy 2000 ft
Overcast 2900 ft
2020/04/03 19:53 KAUG 031953Z AUTO 03017G29KT 3SM -RA BR SCT013 BKN020 OVC029 08/06 A2982 RMK AO2 PK WND 02032/1914 SLP100 P0001 T00780061
KGNR - Greenville, Maine, USA
Distance from station: NW 55mi, 89km
Updated: Fri, 03-Apr-2020 3:56pm EDT

 Wind from NE
Wind: NE 13 mph , 20 km/h, Gust: 21 mph , 33 km/h
Temperature: 45°F , 7°C
Wind Chill: 39°F , 4°C
Dew Point: 34°F , 1°C
Humidity: 66%
Barometer: 29.90 inHg , 1012.5 hPa
2020/04/03 19:56 KGNR 031956Z AUTO 04011G18KT 07/01 A2990 RMK AO1 SLP138 T00720006
 
KMLT - Millinocket, Maine, USA
Distance from station: N 59mi, 95km
Updated: Fri, 03-Apr-2020 3:53pm EDT
Overcast
Overcast
 Wind from ENE
Wind: ENE 15 mph , 24 km/h, Gust: 33 mph , 54 km/h
Temperature: 46°F , 8°C
Wind Chill: 40°F , 4°C
Dew Point: 34°F , 1°C
Humidity: 62%
Barometer: 29.96 inHg , 1014.6 hPa
Clouds: Overcast
Visibility: 10 miles , 16 km
Cloud details: Partly cloudy 3700 ft
Overcast 7000 ft
2020/04/03 19:53 KMLT 031953Z AUTO 06013G29KT 10SM SCT037 OVC070 08/01 A2996 RMK AO2 PK WND 03029/1944 SLP153 T00830011
KIWI - Wiscasset, Maine, USA
Distance from station: SW 70mi, 113km
Updated: Fri, 03-Apr-2020 3:53pm EDT
Light rain, Mist, Overcast
Light rain, Mist, Overcast
 Wind from NNE
Wind: NNE 9 mph , 15 km/h
Temperature: 46°F , 8°C
Wind Chill: 41°F , 5°C
Dew Point: 43°F , 6°C
Humidity: 87%
Barometer: 29.79 inHg , 1008.8 hPa
Summary: Light rain, Mist
Clouds: Overcast
Visibility: 3 miles , 5 km
Cloud details: Overcast 1600 ft
2020/04/03 19:53 KIWI 031953Z AUTO 03008KT 3SM -RA BR OVC016 08/06 A2979 RMK AO2 SLP089 P0004 T00780061
 
CWSS - St. Stephen (mar, New Brunswick, Canada
Distance from station: ENE 86mi, 138km
Updated: Thu, 19-Dec-2019 6:00pm EST
NOT Current

 Wind from W
Wind: W 9 mph , 15 km/h
Temperature: 9°F , -13°C
Wind Chill: -4°F , -20°C
Dew Point: -4°F , -20°C
Humidity: 56%
2019/12/19 23:00 CWSS 192300Z AUTO 27008KT M13/M20 RMK AO1 PK WND 26017/2228 SLP131 T11341199 51023
KLEW - Auburn/Lewiston, Maine, USA
Distance from station: SW 86mi, 138km
Updated: Fri, 03-Apr-2020 3:56pm EDT
Light rain, Mist, Overcast
Light rain, Mist, Overcast
 Wind from NE
Wind: NE 15 mph , 24 km/h, Gust: 24 mph , 39 km/h
Temperature: 45°F , 7°C
Wind Chill: 38°F , 3°C
Dew Point: 43°F , 6°C
Humidity: 93%
Barometer: 29.81 inHg , 1009.5 hPa
Summary: Light rain, Mist
Clouds: Overcast
Visibility: 4 miles , 6 km
Cloud details: Overcast 1100 ft
2020/04/03 19:56 KLEW 031956Z AUTO 04013G21KT 4SM -RA BR OVC011 07/06 A2981 RMK AO2 PK WND 03026/1929 SLP102 P0001 T00720061
 
KHUL - Houlton, Maine, USA
Distance from station: NNE 105mi, 169km
Updated: Fri, 03-Apr-2020 3:53pm EDT
Overcast
Overcast
 Wind from NE
Wind: NE 21 mph , 33 km/h, Gust: 28 mph , 44 km/h
Temperature: 43°F , 6°C
Wind Chill: 34°F , 1°C
Dew Point: 32°F , 0°C
Humidity: 66%
Barometer: 30.01 inHg , 1016.3 hPa
Clouds: Overcast
Visibility: 10 miles , 16 km
Cloud details: Mostly cloudy 2800 ft
Mostly cloudy 3400 ft
Overcast 4400 ft
2020/04/03 19:53 KHUL 031953Z AUTO 05018G24KT 10SM BKN028 BKN034 OVC044 06/00 A3001 RMK AO2 PK WND 04030/1903 SLP166 T00610000
KPWM - Portland, Maine, USA
Distance from station: SW 105mi, 170km
Updated: Fri, 03-Apr-2020 3:51pm EDT
Light rain, Overcast
Light rain, Overcast
 Wind from NNE
Wind: NNE 16 mph , 26 km/h, Gust: 29 mph , 46 km/h
Temperature: 46°F , 8°C
Wind Chill: 39°F , 4°C
Dew Point: 43°F , 6°C
Humidity: 87%
Barometer: 29.78 inHg , 1008.5 hPa
Summary: Light rain
Clouds: Overcast
Visibility: 5 miles , 8 km
Cloud details: Overcast 1300 ft
2020/04/03 19:51 KPWM 031951Z 03014G25KT 5SM -RA OVC013 08/06 A2978 RMK AO2 RAE1856B26 SLP083 P0001 T00830056
 
KBML - Berlin, New Hampshire, USA
Distance from station: W 113mi, 181km
Updated: Fri, 03-Apr-2020 3:52pm EDT
Overcast
Overcast
 Wind from N
Wind: N 9 mph , 15 km/h
Temperature: 45°F , 7°C
Wind Chill: 40°F , 4°C
Dew Point: 39°F , 4°C
Humidity: 81%
Barometer: 29.85 inHg , 1010.8 hPa
Clouds: Overcast
Visibility: 10 miles , 16 km
Cloud details: Few Clouds 2400 ft
Mostly cloudy 3300 ft
Overcast 3900 ft
2020/04/03 19:52 KBML 031952Z AUTO 35008KT 10SM FEW024 BKN033 OVC039 07/04 A2985 RMK AO2 RAE48 SLP117 P0001 T00720044
KIZG - Fryeburg, Maine, USA
Distance from station: WSW 116mi, 186km
Updated: Fri, 03-Apr-2020 3:54pm EDT
Light rain, Mist, Overcast
Light rain, Mist, Overcast
 Wind from NNE
Wind: NNE 10 mph , 17 km/h
Temperature: 45°F , 7°C
Wind Chill: 40°F , 4°C
Dew Point: 43°F , 6°C
Humidity: 93%
Barometer: 29.84 inHg , 1010.5 hPa
Summary: Light rain, Mist
Clouds: Overcast
Visibility: 2 1/2 miles , 4 km
Cloud details: Mostly cloudy 1300 ft
Overcast 1900 ft
2020/04/03 19:54 KIZG 031954Z AUTO 03009KT 2 1/2SM -RA BR BKN013 OVC019 07/06 A2984 RMK AO2 SLP107 P0007 T00720056
 
CWPE - Point Lepreau, New Brunswick, Canada
Distance from station: E 121mi, 195km
Updated: Fri, 03-Apr-2020 3:00pm EDT

 Wind from NNE
Wind: NNE 13 mph , 20 km/h, Gust: 23 mph , 37 km/h
Temperature: 48°F , 9°C
Wind Chill: 43°F , 6°C
Dew Point: 37°F , 3°C
Humidity: 66%
2020/04/03 19:00 CWPE 031900Z AUTO 03011G20KT 09/03 RMK AO1 PK WND 03023/1824 SLP112 T00870031 53019
KMWN - Mount Washington, New Hampshire, USA
Distance from station: WSW 123mi, 198km
Updated: Fri, 03-Apr-2020 3:47pm EDT

 Wind from NE
Wind: NE 66 mph , 106 km/h, Gust: 83 mph , 133 km/h
Visibility: 1/16 mile , 0.1 km
2020/04/03 19:47 KMWN 031947Z 05057G72KT 1/16SM -PLFZRA FZFG VV002 M02/M02 RMK FZRAB40 VRY LGT GICG
 
KPQI - Presque Isle, Maine, USA
Distance from station: ESE 136mi, 219km
Updated: Fri, 03-Apr-2020 3:56pm EDT
Overcast
Overcast
 Wind from NE
Wind: NE 13 mph , 20 km/h
Temperature: 43°F , 6°C
Wind Chill: 36°F , 2°C
Dew Point: 32°F , 0°C
Humidity: 66%
Barometer: 30.07 inHg , 1018.3 hPa
Clouds: Overcast
Visibility: 10 miles , 16 km
Cloud details: Overcast 3200 ft
2020/04/03 19:56 KPQI 031956Z AUTO 04011KT 10SM OVC032 06/00 A3007 RMK AO2 SLP214 T00610000
KCAR - Caribou, Maine, USA
Distance from station: NNE 148mi, 238km
Updated: Fri, 03-Apr-2020 3:54pm EDT
Overcast
Overcast
 Wind from NE
Wind: NE 12 mph , 19 km/h, Gust: 23 mph , 37 km/h
Temperature: 43°F , 6°C
Wind Chill: 37°F , 3°C
Dew Point: 30°F , -1°C
Humidity: 61%
Barometer: 30.07 inHg , 1018.3 hPa
Clouds: Overcast
Visibility: 10 miles , 16 km
Cloud details: Overcast 3400 ft
2020/04/03 19:54 KCAR 031954Z AUTO 05010G20KT 10SM OVC034 06/M01 A3007 RMK AO2 SLP191 T00611011